createdAt,value
2019-04-16T00:00:18.651Z,0
2019-04-16T00:01:31.823Z,0
2019-04-16T00:02:46.003Z,0
2019-04-16T00:04:00.197Z,0
2019-04-16T00:05:14.430Z,0
2019-04-16T00:06:28.644Z,0
2019-04-16T00:07:42.865Z,0
2019-04-16T00:08:57.020Z,0
2019-04-16T00:10:11.153Z,0
2019-04-16T00:11:25.343Z,0
2019-04-16T00:12:39.932Z,0
2019-04-16T00:13:53.686Z,0
2019-04-16T00:15:07.890Z,0
2019-04-16T00:16:22.094Z,0
2019-04-16T00:17:36.306Z,0
2019-04-16T00:18:50.519Z,0
2019-04-16T00:20:04.620Z,0
2019-04-16T00:22:33.074Z,0
2019-04-16T00:23:48.517Z,0
2019-04-16T00:25:01.417Z,0
2019-04-16T00:26:15.599Z,0
2019-04-16T00:27:29.954Z,0
2019-04-16T00:28:43.899Z,0
2019-04-16T00:29:58.091Z,0
2019-04-16T00:31:12.263Z,0
2019-04-16T00:32:26.571Z,0
2019-04-16T00:33:40.662Z,0
2019-04-16T00:34:54.853Z,0
2019-04-16T00:36:09.179Z,0
2019-04-16T00:37:23.183Z,0
2019-04-16T00:38:37.394Z,0
2019-04-16T00:39:51.591Z,0
2019-04-16T00:41:05.853Z,0
2019-04-16T00:42:19.929Z,0
2019-04-16T00:43:34.107Z,0
2019-04-16T00:44:48.307Z,0
2019-04-16T00:47:16.673Z,0
2019-04-16T00:48:30.853Z,0
2019-04-16T00:49:45.148Z,0
2019-04-16T00:50:59.227Z,0
2019-04-16T00:52:13.412Z,0
2019-04-16T00:53:27.589Z,0
2019-04-16T00:54:41.881Z,0
2019-04-16T00:55:55.979Z,0
2019-04-16T00:57:10.151Z,0
2019-04-16T00:58:24.370Z,0
2019-04-16T00:59:38.574Z,0
2019-04-16T01:00:52.712Z,0
2019-04-16T01:02:06.899Z,0
2019-04-16T01:03:21.280Z,0
2019-04-16T01:04:35.435Z,0
2019-04-16T01:05:49.451Z,0
2019-04-16T01:07:05.283Z,0
2019-04-16T01:08:17.804Z,0
2019-04-16T01:09:32.000Z,0
2019-04-16T01:12:00.367Z,0
2019-04-16T01:13:14.566Z,0
2019-04-16T01:14:28.824Z,0
2019-04-16T01:15:42.947Z,0
2019-04-16T01:16:57.212Z,0
2019-04-16T01:18:11.399Z,0
2019-04-16T01:19:25.584Z,0
2019-04-16T01:20:39.697Z,0
2019-04-16T01:21:53.886Z,0
2019-04-16T01:23:08.074Z,0
2019-04-16T01:24:22.261Z,0
2019-04-16T01:25:36.543Z,0
2019-04-16T01:26:50.708Z,0
2019-04-16T01:28:04.871Z,0
2019-04-16T01:29:19.011Z,0
2019-04-16T01:30:33.311Z,0
2019-04-16T01:31:47.464Z,0
2019-04-16T01:33:01.645Z,0
2019-04-16T01:34:15.881Z,0
2019-04-16T01:35:29.986Z,0
2019-04-16T01:36:44.156Z,0
2019-04-16T01:37:58.331Z,0
2019-04-16T01:39:12.533Z,0
2019-04-16T01:40:26.874Z,0
2019-04-16T01:41:41.001Z,0
2019-04-16T01:42:55.205Z,0
2019-04-16T01:44:09.293Z,0
2019-04-16T01:45:23.476Z,0
2019-04-16T01:46:37.678Z,0
2019-04-16T01:47:51.954Z,0
2019-04-16T01:49:06.071Z,0
2019-04-16T01:50:20.346Z,0
2019-04-16T01:51:34.529Z,0
2019-04-16T01:52:48.690Z,0
2019-04-16T01:54:02.851Z,0
2019-04-16T01:55:17.023Z,0
2019-04-16T01:56:31.312Z,0
2019-04-16T01:57:45.603Z,0
2019-04-16T01:58:59.629Z,0
2019-04-16T02:01:27.998Z,0
2019-04-16T02:02:42.315Z,0
2019-04-16T02:03:56.435Z,0
2019-04-16T02:05:10.710Z,0
2019-04-16T02:06:24.797Z,0
2019-04-16T02:07:39.018Z,0
2019-04-16T02:08:53.161Z,0
2019-04-16T02:10:07.381Z,0
2019-04-16T02:11:21.849Z,0
2019-04-16T02:12:35.766Z,0
2019-04-16T02:13:50.020Z,0
2019-04-16T02:15:04.264Z,0
2019-04-16T02:16:18.726Z,0
2019-04-16T02:17:32.622Z,0
2019-04-16T02:18:46.889Z,0
2019-04-16T02:20:00.945Z,0
2019-04-16T02:21:15.140Z,0
2019-04-16T02:22:29.323Z,0
2019-04-16T02:23:43.635Z,0
2019-04-16T02:24:57.871Z,0
2019-04-16T02:26:12.092Z,0
2019-04-16T02:27:26.114Z,0
2019-04-16T02:28:40.336Z,0
2019-04-16T02:29:54.514Z,0
2019-04-16T02:31:08.801Z,0
2019-04-16T02:33:37.093Z,0
2019-04-16T02:34:51.350Z,0
2019-04-16T02:36:05.619Z,0
2019-04-16T02:37:19.723Z,0
2019-04-16T02:38:33.972Z,0
2019-04-16T02:39:48.084Z,0
2019-04-16T02:41:02.277Z,0
2019-04-16T02:42:16.432Z,0
2019-04-16T02:43:30.659Z,0
2019-04-16T02:44:44.820Z,0
2019-04-16T02:45:59.002Z,0
2019-04-16T02:47:13.297Z,0
2019-04-16T02:48:27.509Z,0
2019-04-16T02:50:55.824Z,0
2019-04-16T02:52:10.155Z,0
2019-04-16T02:53:24.208Z,0
2019-04-16T02:54:38.360Z,0
2019-04-16T02:55:52.557Z,0
2019-04-16T02:57:06.772Z,0
2019-04-16T02:58:20.959Z,0
2019-04-16T02:59:35.204Z,0
2019-04-16T03:00:49.360Z,0
2019-04-16T03:02:03.507Z,0
2019-04-16T03:03:17.685Z,0
2019-04-16T03:04:31.905Z,0
2019-04-16T03:05:46.107Z,0
2019-04-16T03:07:00.289Z,0
2019-04-16T03:08:14.591Z,0
2019-04-16T03:09:28.744Z,0
2019-04-16T03:10:42.864Z,0
2019-04-16T03:11:57.074Z,0
2019-04-16T03:13:11.275Z,0
2019-04-16T03:14:25.502Z,0
2019-04-16T03:15:39.702Z,0
2019-04-16T03:16:53.859Z,0
2019-04-16T03:18:08.111Z,0
2019-04-16T03:19:22.315Z,0
2019-04-16T03:20:36.548Z,0
2019-04-16T03:21:50.785Z,0
2019-04-16T03:23:04.969Z,0
2019-04-16T03:24:19.080Z,0
2019-04-16T03:25:33.331Z,0
2019-04-16T03:28:02.828Z,0
2019-04-16T03:29:15.912Z,0
2019-04-16T03:30:30.118Z,0
2019-04-16T03:31:44.293Z,0
2019-04-16T03:32:58.501Z,0
2019-04-16T03:34:12.716Z,0
2019-04-16T03:35:26.961Z,0
2019-04-16T03:36:41.157Z,0
2019-04-16T03:37:55.268Z,0
2019-04-16T03:40:23.774Z,0
2019-04-16T03:41:37.876Z,0
2019-04-16T03:42:52.067Z,0
2019-04-16T03:44:06.355Z,0
2019-04-16T03:45:20.486Z,0
2019-04-16T03:46:36.850Z,0
2019-04-16T03:47:49.178Z,0
2019-04-16T03:49:03.059Z,0
2019-04-16T03:50:17.297Z,0
2019-04-16T03:51:31.455Z,0
2019-04-16T03:52:45.657Z,0
2019-04-16T03:53:59.837Z,0
2019-04-16T03:55:14.089Z,0
2019-04-16T03:56:28.271Z,4
2019-04-16T03:57:42.449Z,4
2019-04-16T03:58:56.750Z,0
2019-04-16T04:00:10.867Z,4
2019-04-16T04:01:25.098Z,4
2019-04-16T04:02:39.332Z,8
2019-04-16T04:03:53.529Z,8
2019-04-16T04:05:07.660Z,8
2019-04-16T04:06:21.835Z,12
2019-04-16T04:07:36.153Z,12
2019-04-16T04:08:50.362Z,12
2019-04-16T04:10:04.458Z,16
2019-04-16T04:11:18.700Z,20
2019-04-16T04:12:36.183Z,28
2019-04-16T04:13:47.080Z,32
2019-04-16T04:15:01.277Z,40
2019-04-16T04:17:29.798Z,56
2019-04-16T04:18:44.016Z,68
2019-04-16T04:19:58.141Z,84
2019-04-16T04:21:12.316Z,96
2019-04-16T04:22:26.523Z,116
2019-04-16T04:23:40.705Z,136
2019-04-16T04:26:09.181Z,184
2019-04-16T04:27:23.310Z,212
2019-04-16T04:29:51.786Z,280
2019-04-16T04:31:05.971Z,316
2019-04-16T04:32:20.441Z,356
2019-04-16T04:33:34.558Z,400
2019-04-16T04:34:48.657Z,444
2019-04-16T04:37:16.954Z,552
2019-04-16T04:38:31.162Z,608
2019-04-16T04:39:45.493Z,664
2019-04-16T04:40:59.704Z,724
2019-04-16T04:42:13.781Z,792
2019-04-16T04:43:27.979Z,860
2019-04-16T04:44:42.233Z,928
2019-04-16T04:45:56.430Z,1000
2019-04-16T04:47:10.560Z,1076
2019-04-16T04:48:24.988Z,1152
2019-04-16T04:49:38.995Z,1228
2019-04-16T04:50:53.158Z,1312
2019-04-16T04:52:07.369Z,1388
2019-04-16T04:53:21.660Z,1476
2019-04-16T04:54:35.807Z,1560
2019-04-16T04:55:50.012Z,1644
2019-04-16T04:57:04.159Z,1728
2019-04-16T04:58:18.361Z,1816
2019-04-16T04:59:32.575Z,1904
2019-04-16T05:00:46.763Z,1992
2019-04-16T05:02:00.979Z,2080
2019-04-16T05:03:15.308Z,2168
2019-04-16T05:04:29.347Z,2256
2019-04-16T05:05:43.554Z,2352
2019-04-16T05:06:57.744Z,2444
2019-04-16T05:08:11.943Z,2524
2019-04-16T05:09:26.277Z,2612
2019-04-16T05:10:40.483Z,2704
2019-04-16T05:11:54.852Z,2796
2019-04-16T05:13:08.821Z,2900
2019-04-16T05:14:23.009Z,2992
2019-04-16T05:15:37.160Z,3088
2019-04-16T05:16:51.450Z,3188
2019-04-16T05:18:05.758Z,3284
2019-04-16T05:19:19.826Z,3348
2019-04-16T05:20:33.912Z,3456
2019-04-16T05:21:48.136Z,3504
2019-04-16T05:23:02.302Z,3548
2019-04-16T05:24:16.503Z,3636
2019-04-16T05:25:30.722Z,3740
2019-04-16T05:26:44.903Z,3892
2019-04-16T05:27:59.125Z,4092
2019-04-16T05:29:13.808Z,4200
2019-04-16T05:30:27.671Z,4348
2019-04-16T05:31:41.777Z,4452
2019-04-16T05:32:55.905Z,4556
2019-04-16T05:34:10.088Z,4640
2019-04-16T05:35:24.256Z,4740
2019-04-16T05:36:41.137Z,4844
2019-04-16T05:37:52.647Z,4936
2019-04-16T05:39:06.857Z,5040
2019-04-16T05:40:21.008Z,5132
2019-04-16T05:41:35.268Z,5224
2019-04-16T05:42:49.393Z,5320
2019-04-16T05:44:03.727Z,5408
2019-04-16T05:45:17.719Z,5512
2019-04-16T05:46:31.899Z,5608
2019-04-16T05:47:46.087Z,5704
2019-04-16T05:49:00.241Z,5792
2019-04-16T05:50:14.425Z,5884
2019-04-16T05:51:28.606Z,5980
2019-04-16T05:52:42.766Z,6048
2019-04-16T05:53:57.085Z,6168
2019-04-16T05:55:11.118Z,6280
2019-04-16T05:56:25.383Z,6384
2019-04-16T05:57:39.509Z,6500
2019-04-16T05:58:53.638Z,6588
2019-04-16T06:00:07.854Z,6680
2019-04-16T06:01:21.981Z,6756
2019-04-16T06:02:36.876Z,6856
2019-04-16T06:03:50.389Z,6948
2019-04-16T06:05:04.569Z,7016
2019-04-16T06:06:18.663Z,7116
2019-04-16T06:07:32.836Z,7212
2019-04-16T06:08:47.082Z,7312
2019-04-16T06:10:01.157Z,7400
2019-04-16T06:11:15.367Z,7504
2019-04-16T06:12:29.499Z,7612
2019-04-16T06:13:43.648Z,7704
2019-04-16T06:14:57.884Z,7760
2019-04-16T06:16:11.969Z,7788
2019-04-16T06:17:26.152Z,7808
2019-04-16T06:18:40.391Z,7868
2019-04-16T06:19:54.466Z,7944
2019-04-16T06:21:08.623Z,8000
2019-04-16T06:22:22.848Z,8060
2019-04-16T06:23:36.982Z,8124
2019-04-16T06:24:51.111Z,8188
2019-04-16T06:26:05.435Z,8248
2019-04-16T06:27:19.429Z,8320
2019-04-16T06:28:33.649Z,8396
2019-04-16T06:29:48.794Z,8488
2019-04-16T06:31:02.410Z,8556
2019-04-16T06:32:16.253Z,8636
2019-04-16T06:33:30.321Z,8712
2019-04-16T06:34:44.375Z,8788
2019-04-16T06:35:58.527Z,8868
2019-04-16T06:37:12.722Z,8960
2019-04-16T06:38:26.840Z,9036
2019-04-16T06:39:41.192Z,9104
2019-04-16T06:40:55.149Z,9172
2019-04-16T06:42:09.391Z,9244
2019-04-16T06:43:23.498Z,9328
2019-04-16T06:44:37.623Z,9392
2019-04-16T06:45:51.773Z,9488
2019-04-16T06:47:05.917Z,9576
2019-04-16T06:48:20.621Z,9692
2019-04-16T06:49:34.229Z,9772
2019-04-16T06:50:48.355Z,9868
2019-04-16T06:52:02.540Z,10096
2019-04-16T06:53:16.657Z,10384
2019-04-16T06:54:30.807Z,10868
2019-04-16T06:55:44.943Z,11628
2019-04-16T06:58:13.251Z,13012
2019-04-16T06:59:27.422Z,13600
2019-04-16T07:00:41.511Z,13656
2019-04-16T07:01:55.681Z,13444
2019-04-16T07:03:09.790Z,14028
2019-04-16T07:04:23.935Z,14176
2019-04-16T07:05:38.138Z,14180
2019-04-16T07:06:52.401Z,14364
2019-04-16T07:08:06.484Z,15272
2019-04-16T07:09:20.582Z,15840
2019-04-16T07:10:34.661Z,16236
2019-04-16T07:11:48.786Z,16592
2019-04-16T07:13:02.944Z,16788
2019-04-16T07:14:17.109Z,17760
2019-04-16T07:15:31.279Z,17952
2019-04-16T07:16:45.363Z,18336
2019-04-16T07:17:59.746Z,17728
2019-04-16T07:19:13.543Z,19008
2019-04-16T07:20:27.681Z,19584
2019-04-16T07:21:41.894Z,19360
2019-04-16T07:22:56.032Z,19904
2019-04-16T07:24:10.065Z,19936
2019-04-16T07:25:24.197Z,20992
2019-04-16T07:26:38.340Z,21664
2019-04-16T07:27:52.450Z,21792
2019-04-16T07:29:06.549Z,22112
2019-04-16T07:30:20.676Z,22272
2019-04-16T07:31:34.890Z,22592
2019-04-16T07:32:48.893Z,22976
2019-04-16T07:34:03.012Z,24000
2019-04-16T07:35:17.141Z,23392
2019-04-16T07:36:31.877Z,23584
2019-04-16T07:37:45.412Z,25088
2019-04-16T07:38:59.487Z,25120
2019-04-16T07:40:13.628Z,25152
2019-04-16T07:41:27.790Z,26560
2019-04-16T07:42:41.865Z,27040
2019-04-16T07:43:56.057Z,26976
2019-04-16T07:45:10.120Z,26656
2019-04-16T07:46:24.203Z,25216
2019-04-16T07:47:38.301Z,26304
2019-04-16T07:48:52.398Z,27264
2019-04-16T07:50:06.534Z,26080
2019-04-16T07:51:20.633Z,26912
2019-04-16T07:52:34.903Z,29792
2019-04-16T07:53:48.841Z,32928
2019-04-16T07:55:02.961Z,32288
2019-04-16T07:56:17.051Z,32320
2019-04-16T07:57:31.261Z,32704
2019-04-16T07:58:45.481Z,33312
2019-04-16T07:59:59.392Z,32224
2019-04-16T08:01:13.529Z,32768
2019-04-16T08:02:27.669Z,36000
2019-04-16T08:03:41.805Z,38080
2019-04-16T08:04:56.015Z,38624
2019-04-16T08:06:10.251Z,37792
2019-04-16T08:07:24.101Z,37088
2019-04-16T08:08:38.299Z,36320
2019-04-16T08:09:52.285Z,37728
2019-04-16T08:12:20.605Z,41408
2019-04-16T08:13:34.577Z,40992
2019-04-16T08:14:48.736Z,40864
2019-04-16T08:16:02.792Z,41536
2019-04-16T08:17:16.894Z,41824
2019-04-16T08:18:30.980Z,41696
2019-04-16T08:19:45.179Z,42176
2019-04-16T08:20:59.255Z,42240
2019-04-16T08:22:13.426Z,42656
2019-04-16T08:23:27.484Z,41920
2019-04-16T08:24:41.472Z,40288
2019-04-16T08:25:55.735Z,41280
2019-04-16T08:27:09.728Z,43584
2019-04-16T08:28:24.026Z,44160
2019-04-16T08:29:37.893Z,44832
2019-04-16T08:30:51.995Z,45408
2019-04-16T08:32:06.467Z,45824
2019-04-16T08:33:20.254Z,46560
2019-04-16T08:34:34.347Z,46464
2019-04-16T08:35:48.353Z,46784
2019-04-16T08:37:02.571Z,47040
2019-04-16T08:38:19.398Z,48032
2019-04-16T08:39:32.346Z,47872
2019-04-16T08:40:44.830Z,48288
2019-04-16T08:41:58.820Z,49984
2019-04-16T08:43:12.929Z,49888
2019-04-16T08:45:41.107Z,49408
2019-04-16T08:46:55.302Z,51968
2019-04-16T08:48:09.323Z,52960
2019-04-16T08:49:23.462Z,51680
2019-04-16T08:50:37.463Z,52096
2019-04-16T08:51:51.579Z,52992
2019-04-16T08:53:05.657Z,54624
2019-04-16T08:54:19.714Z,55168
2019-04-16T08:55:33.832Z,54432
2019-04-16T08:56:47.908Z,55232
2019-04-16T08:58:01.969Z,55104
2019-04-16T08:59:16.118Z,54688
2019-04-16T09:00:30.132Z,54912
2019-04-16T09:01:44.210Z,56160
2019-04-16T09:02:58.322Z,57088
2019-04-16T09:04:12.443Z,58400
2019-04-16T09:05:26.461Z,57312
2019-04-16T09:06:40.564Z,57312
2019-04-16T09:07:54.585Z,55264
2019-04-16T09:09:08.937Z,54976
2019-04-16T09:10:22.931Z,57472
2019-04-16T09:11:36.789Z,58688
2019-04-16T09:12:50.993Z,59552
2019-04-16T09:14:04.997Z,61536
2019-04-16T09:15:18.962Z,60672
2019-04-16T09:16:33.017Z,61632
2019-04-16T09:17:47.072Z,62048
2019-04-16T09:19:01.127Z,63424
2019-04-16T09:20:15.207Z,64064
2019-04-16T09:21:29.232Z,64832
2019-04-16T09:22:43.305Z,65856
2019-04-16T09:23:57.389Z,67840
2019-04-16T09:25:11.425Z,68192
2019-04-16T09:26:25.468Z,67488
2019-04-16T09:27:39.672Z,66592
2019-04-16T09:28:53.749Z,65952
2019-04-16T09:30:07.707Z,66656
2019-04-16T09:31:21.732Z,68512
2019-04-16T09:32:35.744Z,69760
2019-04-16T09:33:49.810Z,70624
2019-04-16T09:35:03.928Z,71296
2019-04-16T09:36:18.040Z,69760
2019-04-16T09:37:31.954Z,68544
2019-04-16T09:38:46.097Z,68352
2019-04-16T09:40:00.123Z,68896
2019-04-16T09:41:14.126Z,71808
2019-04-16T09:42:28.138Z,71232
2019-04-16T09:43:42.280Z,70176
2019-04-16T09:44:56.302Z,69216
2019-04-16T09:46:10.326Z,71392
2019-04-16T09:47:24.363Z,72608
2019-04-16T09:48:38.473Z,72160
2019-04-16T09:49:52.489Z,74560
2019-04-16T09:51:06.685Z,75936
2019-04-16T09:52:21.032Z,75168
2019-04-16T09:53:34.791Z,75840
2019-04-16T09:54:48.688Z,75392
2019-04-16T09:56:02.767Z,75552
2019-04-16T09:57:16.873Z,75264
2019-04-16T09:58:30.889Z,76736
2019-04-16T09:59:44.986Z,77472
2019-04-16T10:00:58.965Z,74592
2019-04-16T10:03:27.107Z,73216
2019-04-16T10:04:41.229Z,75680
2019-04-16T10:05:55.201Z,76800
2019-04-16T10:07:09.239Z,76224
2019-04-16T10:08:23.451Z,78976
2019-04-16T10:09:37.362Z,78240
2019-04-16T10:10:51.446Z,76928
2019-04-16T10:12:05.600Z,76032
2019-04-16T10:13:19.520Z,76864
2019-04-16T10:15:47.631Z,78560
2019-04-16T10:17:01.659Z,79552
2019-04-16T10:18:15.767Z,80992
2019-04-16T10:19:29.808Z,80896
2019-04-16T10:20:43.827Z,81632
2019-04-16T10:21:57.872Z,80896
2019-04-16T10:23:11.906Z,82592
2019-04-16T10:24:25.956Z,82784
2019-04-16T10:25:40.010Z,82784
2019-04-16T10:26:54.100Z,83232
2019-04-16T10:28:08.162Z,83264
2019-04-16T10:29:22.409Z,83424
2019-04-16T10:30:36.173Z,82912
2019-04-16T10:31:50.374Z,82304
2019-04-16T10:33:04.250Z,83744
2019-04-16T10:34:18.309Z,86368
2019-04-16T10:35:32.351Z,85952
2019-04-16T10:36:46.617Z,89120
2019-04-16T10:38:00.447Z,87264
2019-04-16T10:39:14.464Z,84928
2019-04-16T10:40:28.526Z,84288
2019-04-16T10:41:42.674Z,86176
2019-04-16T10:42:56.599Z,84864
2019-04-16T10:44:10.621Z,84224
2019-04-16T10:45:24.687Z,89344
2019-04-16T10:46:38.705Z,89344
2019-04-16T10:47:52.841Z,91776
2019-04-16T10:49:07.023Z,91520
2019-04-16T10:50:20.906Z,90176
2019-04-16T10:51:34.933Z,88800
2019-04-16T10:52:48.893Z,89216
2019-04-16T10:54:06.124Z,86624
2019-04-16T10:55:16.967Z,86720
2019-04-16T10:56:31.027Z,91520
2019-04-16T10:57:45.169Z,92768
2019-04-16T10:58:59.055Z,90944
2019-04-16T11:00:13.115Z,92064
2019-04-16T11:01:27.120Z,93952
2019-04-16T11:02:41.153Z,94976
2019-04-16T11:03:55.238Z,95264
2019-04-16T11:05:09.208Z,95712
2019-04-16T11:06:23.242Z,98080
2019-04-16T11:07:37.271Z,97024
2019-04-16T11:08:51.365Z,98400
2019-04-16T11:10:05.375Z,97024
2019-04-16T11:11:19.469Z,99072
2019-04-16T11:12:33.568Z,95104
2019-04-16T11:13:47.455Z,95840
2019-04-16T11:15:01.595Z,94720
2019-04-16T11:16:15.528Z,98144
2019-04-16T11:17:29.575Z,93824
2019-04-16T11:18:43.868Z,92448
2019-04-16T11:19:57.748Z,93472
2019-04-16T11:21:11.845Z,93632
2019-04-16T11:22:25.719Z,97440
2019-04-16T11:23:39.809Z,96544
2019-04-16T11:24:53.888Z,95456
2019-04-16T11:26:12.896Z,92256
2019-04-16T11:27:22.312Z,90432
2019-04-16T11:28:36.034Z,91264
2019-04-16T11:29:50.047Z,91648
2019-04-16T11:31:04.078Z,92352
2019-04-16T11:32:18.174Z,93120
2019-04-16T11:33:32.220Z,96512
2019-04-16T11:34:46.225Z,93824
2019-04-16T11:36:00.281Z,94048
2019-04-16T11:37:14.367Z,93184
2019-04-16T11:38:28.395Z,92000
2019-04-16T11:39:42.425Z,90976
2019-04-16T11:40:56.472Z,90272
2019-04-16T11:42:10.637Z,94336
2019-04-16T11:43:24.588Z,96896
2019-04-16T11:44:38.757Z,96128
2019-04-16T11:45:52.727Z,97280
2019-04-16T11:47:06.753Z,94688
2019-04-16T11:48:20.843Z,97152
2019-04-16T11:49:34.969Z,96896
2019-04-16T11:50:48.965Z,97024
2019-04-16T11:52:03.152Z,101088
2019-04-16T11:53:17.028Z,100288
2019-04-16T11:54:31.083Z,97152
2019-04-16T11:55:45.359Z,101184
2019-04-16T11:56:59.290Z,105248
2019-04-16T11:58:13.274Z,104160
2019-04-16T11:59:32.709Z,103040
2019-04-16T12:00:41.379Z,103232
2019-04-16T12:01:55.458Z,102208
2019-04-16T12:03:09.532Z,100320
2019-04-16T12:04:23.575Z,103872
2019-04-16T12:05:37.600Z,99456
2019-04-16T12:06:52.821Z,100256
2019-04-16T12:08:05.848Z,100384
2019-04-16T12:09:19.751Z,100640
2019-04-16T12:10:33.869Z,99680
2019-04-16T12:11:47.834Z,97312
2019-04-16T12:13:01.968Z,96736
2019-04-16T12:14:15.950Z,97536
2019-04-16T12:15:30.866Z,96512
2019-04-16T12:16:44.053Z,94400
2019-04-16T12:18:00.514Z,90464
2019-04-16T12:19:13.457Z,87488
2019-04-16T12:20:28.044Z,90016
2019-04-16T12:21:40.678Z,94688
2019-04-16T12:22:54.339Z,102272
2019-04-16T12:24:08.740Z,104288
2019-04-16T12:25:22.572Z,105664
2019-04-16T12:26:36.684Z,104416
2019-04-16T12:27:50.626Z,105408
2019-04-16T12:29:04.668Z,107200
2019-04-16T12:30:18.768Z,101280
2019-04-16T12:31:32.769Z,104640
2019-04-16T12:32:46.796Z,102784
2019-04-16T12:34:00.865Z,103648
2019-04-16T12:35:14.915Z,103136
2019-04-16T12:36:29.016Z,106176
2019-04-16T12:37:43.097Z,107872
2019-04-16T12:39:01.846Z,105952
2019-04-16T12:40:11.132Z,108224
2019-04-16T12:41:25.196Z,104928
2019-04-16T12:42:39.265Z,107008
2019-04-16T12:43:53.301Z,105728
2019-04-16T12:45:07.417Z,104576
2019-04-16T12:46:21.573Z,103904
2019-04-16T12:47:35.656Z,104768
2019-04-16T12:48:49.565Z,102080
2019-04-16T12:50:03.898Z,104768
2019-04-16T12:51:17.700Z,106848
2019-04-16T12:52:31.728Z,104576
2019-04-16T12:53:45.783Z,106144
2019-04-16T12:55:00.013Z,101536
2019-04-16T12:56:13.987Z,97728
2019-04-16T12:57:28.058Z,99392
2019-04-16T12:58:42.093Z,97440
2019-04-16T12:59:56.085Z,99008
2019-04-16T13:01:10.173Z,103392
2019-04-16T13:02:24.237Z,104288
2019-04-16T13:03:38.274Z,101792
2019-04-16T13:04:52.339Z,103232
2019-04-16T13:06:06.832Z,100992
2019-04-16T13:07:20.461Z,100544
2019-04-16T13:08:34.574Z,100224
2019-04-16T13:09:48.706Z,102176
2019-04-16T13:11:02.811Z,99968
2019-04-16T13:12:16.873Z,103456
2019-04-16T13:13:30.822Z,103104
2019-04-16T13:14:45.012Z,106720
2019-04-16T13:15:58.926Z,106208
2019-04-16T13:17:13.032Z,103072
2019-04-16T13:18:32.255Z,101984
2019-04-16T13:19:41.148Z,103200
2019-04-16T13:20:55.250Z,102944
2019-04-16T13:22:09.330Z,102784
2019-04-16T13:23:23.362Z,102688
2019-04-16T13:24:37.451Z,101504
2019-04-16T13:25:51.735Z,104576
2019-04-16T13:27:05.484Z,103520
2019-04-16T13:28:19.533Z,102656
2019-04-16T13:29:33.632Z,103744
2019-04-16T13:30:47.642Z,101408
2019-04-16T13:32:01.801Z,102016
2019-04-16T13:33:15.853Z,100960
2019-04-16T13:34:29.863Z,102336
2019-04-16T13:35:43.870Z,101120
2019-04-16T13:36:57.990Z,103008
2019-04-16T13:38:12.094Z,95904
2019-04-16T13:39:26.062Z,91072
2019-04-16T13:41:54.167Z,84512
2019-04-16T13:43:08.388Z,70784
2019-04-16T13:44:22.330Z,71840
2019-04-16T13:45:36.417Z,70528
2019-04-16T13:46:50.421Z,69536
2019-04-16T13:48:04.583Z,78048
2019-04-16T13:49:18.557Z,80448
2019-04-16T13:50:32.762Z,85664
2019-04-16T13:51:46.717Z,91712
2019-04-16T13:53:02.048Z,95616
2019-04-16T13:54:14.838Z,96480
2019-04-16T13:55:28.844Z,95200
2019-04-16T13:56:42.910Z,94912
2019-04-16T13:57:57.014Z,91264
2019-04-16T13:59:11.125Z,88416
2019-04-16T14:00:25.048Z,86880
2019-04-16T14:01:39.112Z,87808
2019-04-16T14:02:53.156Z,94272
2019-04-16T14:04:07.243Z,91616
2019-04-16T14:05:21.358Z,91456
2019-04-16T14:06:35.477Z,90432
2019-04-16T14:07:49.400Z,89728
2019-04-16T14:09:03.469Z,91040
2019-04-16T14:10:17.608Z,90528
2019-04-16T14:11:31.584Z,90528
2019-04-16T14:12:45.751Z,87776
2019-04-16T14:13:59.737Z,88896
2019-04-16T14:15:13.843Z,85504
2019-04-16T14:16:27.953Z,87392
2019-04-16T14:17:42.067Z,85152
2019-04-16T14:18:56.004Z,84800
2019-04-16T14:20:10.178Z,87456
2019-04-16T14:21:24.151Z,86144
2019-04-16T14:22:38.223Z,86624
2019-04-16T14:23:52.427Z,87584
2019-04-16T14:25:06.839Z,84320
2019-04-16T14:26:20.470Z,83904
2019-04-16T14:27:34.490Z,81824
2019-04-16T14:28:48.610Z,80736
2019-04-16T14:30:02.652Z,83264
2019-04-16T14:31:16.766Z,86048
2019-04-16T14:32:30.801Z,84000
2019-04-16T14:33:44.872Z,81792
2019-04-16T14:34:59.051Z,81312
2019-04-16T14:36:13.032Z,80608
2019-04-16T14:37:27.117Z,80704
2019-04-16T14:38:41.206Z,77216
2019-04-16T14:39:55.257Z,74720
2019-04-16T14:41:09.354Z,71584
2019-04-16T14:42:23.440Z,76320
2019-04-16T14:43:37.501Z,78464
2019-04-16T14:44:51.742Z,76736
2019-04-16T14:46:05.672Z,76288
2019-04-16T14:47:19.797Z,75808
2019-04-16T14:48:33.805Z,75104
2019-04-16T14:49:47.912Z,75936
2019-04-16T14:51:01.937Z,75584
2019-04-16T14:52:16.057Z,75392
2019-04-16T14:53:30.098Z,75104
2019-04-16T14:54:44.181Z,74656
2019-04-16T14:55:58.253Z,72928
2019-04-16T14:57:12.334Z,72544
2019-04-16T14:58:26.397Z,75296
2019-04-16T14:59:40.478Z,73760
2019-04-16T15:00:54.554Z,73952
2019-04-16T15:02:08.619Z,66272
2019-04-16T15:03:22.703Z,71360
2019-04-16T15:04:36.774Z,71520
2019-04-16T15:05:50.853Z,71712
2019-04-16T15:07:08.848Z,70336
2019-04-16T15:08:19.162Z,70304
2019-04-16T15:09:33.175Z,69120
2019-04-16T15:10:47.195Z,66880
2019-04-16T15:12:01.277Z,63232
2019-04-16T15:13:15.382Z,61984
2019-04-16T15:14:29.665Z,63296
2019-04-16T15:15:43.580Z,63808
2019-04-16T15:16:57.640Z,62336
2019-04-16T15:18:11.737Z,64640
2019-04-16T15:19:25.812Z,63840
2019-04-16T15:20:39.884Z,64032
2019-04-16T15:21:53.971Z,62432
2019-04-16T15:23:08.080Z,61088
2019-04-16T15:24:22.349Z,55712
2019-04-16T15:25:36.269Z,59840
2019-04-16T15:26:50.412Z,57088
2019-04-16T15:28:04.542Z,55712
2019-04-16T15:29:18.524Z,56352
2019-04-16T15:30:32.599Z,55968
2019-04-16T15:31:46.704Z,53184
2019-04-16T15:33:00.777Z,51616
2019-04-16T15:34:14.855Z,51744
2019-04-16T15:35:28.927Z,43968
2019-04-16T15:36:43.332Z,33952
2019-04-16T15:37:57.102Z,27328
2019-04-16T15:39:11.234Z,26048
2019-04-16T15:40:25.279Z,26432
2019-04-16T15:41:39.503Z,26656
2019-04-16T15:42:53.487Z,25824
2019-04-16T15:44:07.539Z,25472
2019-04-16T15:45:21.825Z,25408
2019-04-16T15:46:35.775Z,25280
2019-04-16T15:47:49.829Z,25024
2019-04-16T15:49:03.897Z,25120
2019-04-16T15:50:18.029Z,24448
2019-04-16T15:51:32.046Z,24480
2019-04-16T15:52:46.169Z,24128
2019-04-16T15:54:00.204Z,24448
2019-04-16T15:55:14.281Z,24800
2019-04-16T15:56:28.464Z,24128
2019-04-16T15:57:42.467Z,24416
2019-04-16T15:58:56.535Z,24416
2019-04-16T16:00:10.696Z,24416
2019-04-16T16:01:24.844Z,24480
2019-04-16T16:02:38.816Z,22080
2019-04-16T16:03:52.920Z,24288
2019-04-16T16:05:07.042Z,28480
2019-04-16T16:06:21.089Z,41248
2019-04-16T16:07:35.177Z,55680
2019-04-16T16:08:49.198Z,52640
2019-04-16T16:10:03.737Z,54784
2019-04-16T16:11:17.431Z,47552
2019-04-16T16:12:31.416Z,42304
2019-04-16T16:13:45.593Z,38880
2019-04-16T16:14:59.619Z,40480
2019-04-16T16:16:13.717Z,38496
2019-04-16T16:17:27.775Z,39264
2019-04-16T16:18:41.877Z,37696
2019-04-16T16:19:56.127Z,35168
2019-04-16T16:21:10.070Z,32000
2019-04-16T16:22:24.172Z,30336
2019-04-16T16:23:38.280Z,28640
2019-04-16T16:24:52.365Z,32256
2019-04-16T16:26:06.695Z,32096
2019-04-16T16:27:20.598Z,30432
2019-04-16T16:28:34.678Z,26592
2019-04-16T16:29:48.807Z,24480
2019-04-16T16:31:02.884Z,27552
2019-04-16T16:32:17.099Z,29472
2019-04-16T16:33:31.101Z,29536
2019-04-16T16:34:45.193Z,26560
2019-04-16T16:35:59.427Z,24864
2019-04-16T16:38:27.578Z,20640
2019-04-16T16:39:41.639Z,21760
2019-04-16T16:40:55.739Z,21184
2019-04-16T16:42:09.906Z,23136
2019-04-16T16:43:24.077Z,17600
2019-04-16T16:44:38.082Z,21024
2019-04-16T16:45:52.189Z,21088
2019-04-16T16:47:06.394Z,19200
2019-04-16T16:48:20.497Z,18784
2019-04-16T16:49:34.525Z,16384
2019-04-16T16:50:48.672Z,17696
2019-04-16T16:52:02.739Z,18336